Time;durP1;ratioP1;P1;durP2;ratioP2;P2;SDS_P1;SDS_P2;PMS_P1;PMS_P2;Temp;Humidity;BMP_temperature;BMP_pressure;BME280_temperature;BME280_humidity;BME280_pressure;Samples;Min_cycle;Max_cycle;Signal;HPM_P1;HPM_P2
2023/04/16 00:00:03;;;;;;;2.57;2.23;;;8.50;99.90;;;;;;5059117;28;20198;-43
2023/04/16 00:02:36;;;;;;;2.17;2.00;;;8.50;99.90;;;;;;5060061;28;20184;-42
2023/04/16 00:05:02;;;;;;;2.47;2.27;;;8.50;99.90;;;;;;5058766;28;20169;-42
2023/04/16 00:07:28;;;;;;;2.07;1.93;;;8.50;99.90;;;;;;5061245;28;20205;-40
2023/04/16 00:09:54;;;;;;;2.20;2.00;;;8.50;99.90;;;;;;5058919;28;20233;-42
2023/04/16 00:12:20;;;;;;;2.60;2.40;;;8.50;99.90;;;;;;5059503;28;20169;-42
2023/04/16 00:14:46;;;;;;;2.40;2.20;;;8.60;99.90;;;;;;5041613;28;20167;-43
2023/04/16 00:17:12;;;;;;;2.43;2.23;;;8.60;99.90;;;;;;5061552;28;20216;-42
2023/04/16 00:19:38;;;;;;;3.30;2.47;;;8.60;99.90;;;;;;5059518;28;20232;-42
2023/04/16 00:22:03;;;;;;;2.57;2.37;;;8.50;99.90;;;;;;5060679;28;20266;-42
2023/04/16 00:24:29;;;;;;;2.43;2.03;;;8.50;99.90;;;;;;5058255;28;20177;-42
2023/04/16 00:26:55;;;;;;;3.40;2.50;;;8.50;99.90;;;;;;5059878;28;20239;-42
2023/04/16 00:29:21;;;;;;;3.10;2.80;;;8.50;99.90;;;;;;5048699;28;20194;-41
2023/04/16 00:31:47;;;;;;;2.93;2.63;;;8.50;99.90;;;;;;5059018;28;20174;-42
2023/04/16 00:34:13;;;;;;;2.87;2.67;;;8.50;99.90;;;;;;5059285;28;20249;-42
2023/04/16 00:36:39;;;;;;;2.90;2.60;;;8.40;99.90;;;;;;5058901;28;20251;-42
2023/04/16 00:39:05;;;;;;;3.37;3.07;;;8.50;99.90;;;;;;5057578;28;20247;-41
2023/04/16 00:41:30;;;;;;;2.83;2.60;;;8.50;99.90;;;;;;5041581;28;20268;-42
2023/04/16 00:43:56;;;;;;;3.30;3.00;;;8.50;99.90;;;;;;5059342;28;20178;-42
2023/04/16 00:46:23;;;;;;;4.03;3.13;;;8.50;99.90;;;;;;5049364;28;20653;-42
2023/04/16 00:48:51;;;;;;;3.73;3.27;;;8.50;99.90;;;;;;5056783;28;20204;-42
2023/04/16 00:51:19;;;;;;;3.37;3.07;;;8.50;99.90;;;;;;5057432;28;20174;-42
2023/04/16 00:53:46;;;;;;;3.53;3.23;;;8.50;99.90;;;;;;5042580;28;20184;-40
2023/04/16 00:56:12;;;;;;;3.60;3.30;;;8.50;99.90;;;;;;5052107;28;20201;-42
2023/04/16 00:58:38;;;;;;;3.80;3.50;;;8.40;99.90;;;;;;5063036;28;20193;-42
2023/04/16 01:01:05;;;;;;;4.27;3.47;;;8.40;99.90;;;;;;5061482;28;20248;-42
2023/04/16 01:03:40;;;;;;;4.10;3.70;;;8.40;99.90;;;;;;5062758;28;20174;-43
2023/04/16 01:06:06;;;;;;;3.60;3.30;;;8.40;99.90;;;;;;5062521;28;20267;-42
2023/04/16 01:08:32;;;;;;;4.17;3.77;;;8.40;99.90;;;;;;5062605;28;20294;-43
2023/04/16 01:10:58;;;;;;;4.10;3.70;;;8.50;99.90;;;;;;5044661;28;20654;-42
2023/04/16 01:13:24;;;;;;;4.47;4.00;;;8.40;99.90;;;;;;5061864;28;20244;-41
2023/04/16 01:15:50;;;;;;;4.33;3.93;;;8.40;99.90;;;;;;5062452;28;20185;-41
2023/04/16 01:18:18;;;;;;;4.20;3.80;;;8.40;99.90;;;;;;5062501;28;20174;-41
2023/04/16 01:20:44;;;;;;;5.50;4.20;;;8.40;99.90;;;;;;5062810;28;20734;-43
2023/04/16 01:23:10;;;;;;;4.20;3.80;;;8.40;99.90;;;;;;5063330;28;20185;-43
2023/04/16 01:25:38;;;;;;;4.70;4.20;;;8.40;99.90;;;;;;5062408;28;20173;-41
2023/04/16 01:28:04;;;;;;;4.60;4.20;;;8.40;99.90;;;;;;5043941;28;20177;-42
2023/04/16 01:30:30;;;;;;;4.93;4.43;;;8.40;99.90;;;;;;5062809;28;20184;-42
2023/04/16 01:33:20;;;;;;;4.83;4.33;;;8.40;99.90;;;;;;5061485;28;20202;-42
2023/04/16 01:35:46;;;;;;;4.63;4.20;;;8.50;99.90;;;;;;5061259;28;20173;-42
2023/04/16 01:38:14;;;;;;;5.10;4.27;;;8.50;99.90;;;;;;5061550;28;20232;-41
2023/04/16 01:40:40;;;;;;;4.20;3.80;;;8.50;99.90;;;;;;5051820;28;20209;-43
2023/04/16 01:43:06;;;;;;;4.20;3.80;;;8.50;99.90;;;;;;5063398;28;20165;-41
2023/04/16 01:45:33;;;;;;;4.37;3.97;;;8.50;99.90;;;;;;5060421;28;20174;-41
2023/04/16 01:47:59;;;;;;;4.40;4.00;;;8.50;99.90;;;;;;5044056;28;20670;-43
2023/04/16 01:50:25;;;;;;;4.30;3.90;;;8.50;99.90;;;;;;5060773;28;20205;-41
2023/04/16 01:52:51;;;;;;;4.50;3.67;;;8.50;99.90;;;;;;5061648;28;20181;-42
2023/04/16 01:55:17;;;;;;;3.80;3.50;;;8.50;99.90;;;;;;5064998;28;20228;-42
2023/04/16 01:57:43;;;;;;;4.23;3.83;;;8.50;99.90;;;;;;5061055;28;20213;-42
2023/04/16 02:00:10;;;;;;;4.00;3.57;;;8.50;99.90;;;;;;5060780;28;20560;-42
2023/04/16 02:02:44;;;;;;;4.60;3.97;;;8.50;99.90;;;;;;5062602;28;20185;-42
2023/04/16 02:05:13;;;;;;;3.77;3.47;;;8.50;99.90;;;;;;5059187;28;20174;-42
2023/04/16 02:07:39;;;;;;;3.80;3.33;;;8.50;99.90;;;;;;5060542;28;20173;-42
2023/04/16 02:10:06;;;;;;;4.10;3.70;;;8.40;99.90;;;;;;5057670;28;20209;-42
2023/04/16 02:12:32;;;;;;;3.83;3.53;;;8.40;99.90;;;;;;5059612;28;20197;-42
2023/04/16 02:14:59;;;;;;;3.80;3.50;;;8.50;99.90;;;;;;5060215;28;20182;-42
2023/04/16 02:17:27;;;;;;;3.57;3.27;;;8.50;99.90;;;;;;5052336;28;20243;-40
2023/04/16 02:20:07;;;;;;;4.90;3.60;;;8.50;99.90;;;;;;5053098;28;20205;-42
2023/04/16 02:22:35;;;;;;;3.67;3.37;;;8.50;99.90;;;;;;5059714;28;20186;-41
2023/04/16 02:25:01;;;;;;;3.60;3.30;;;8.50;99.90;;;;;;5059716;28;20185;-42
2023/04/16 02:27:27;;;;;;;3.40;3.10;;;8.50;99.90;;;;;;5059979;28;20173;-42
2023/04/16 02:29:59;;;;;;;3.80;3.50;;;8.50;99.90;;;;;;5043560;28;20259;-43
2023/04/16 02:32:27;;;;;;;5.00;3.37;;;8.50;99.90;;;;;;5051636;28;20311;-42
2023/04/16 02:34:53;;;;;;;3.67;3.37;;;8.40;99.90;;;;;;5059552;28;20208;-42
2023/04/16 02:37:19;;;;;;;3.47;3.17;;;8.40;99.90;;;;;;5052148;28;20287;-43
2023/04/16 02:39:46;;;;;;;5.27;3.40;;;8.50;99.90;;;;;;5049981;28;20319;-41
2023/04/16 02:42:13;;;;;;;3.60;3.00;;;8.50;99.90;;;;;;5059741;28;20177;-41
2023/04/16 02:44:39;;;;;;;3.50;3.20;;;8.50;99.90;;;;;;5051478;28;20165;-43
2023/04/16 02:47:05;;;;;;;3.80;3.23;;;8.50;99.90;;;;;;5059280;28;20200;-40
2023/04/16 02:49:30;;;;;;;4.10;3.30;;;8.50;99.90;;;;;;5058350;28;20219;-41
2023/04/16 02:51:56;;;;;;;3.70;3.10;;;8.50;99.90;;;;;;5059537;28;20208;-42
2023/04/16 02:54:22;;;;;;;3.57;3.03;;;8.40;99.90;;;;;;5060063;28;20268;-42
2023/04/16 02:56:48;;;;;;;3.00;2.70;;;8.50;99.90;;;;;;5060089;28;20229;-41
2023/04/16 02:59:14;;;;;;;3.43;2.47;;;8.40;99.90;;;;;;5058734;28;20197;-43
2023/04/16 03:01:40;;;;;;;2.73;2.53;;;8.40;99.90;;;;;;5050939;28;20189;-43
2023/04/16 03:04:06;;;;;;;3.20;2.67;;;8.50;99.90;;;;;;5042636;28;20185;-43
2023/04/16 03:06:31;;;;;;;2.70;2.40;;;8.50;99.90;;;;;;5052230;28;20177;-42
2023/04/16 03:08:57;;;;;;;2.30;2.10;;;8.40;99.90;;;;;;5059180;28;20197;-42
2023/04/16 03:11:23;;;;;;;2.40;2.20;;;8.40;99.90;;;;;;5060391;28;20186;-42
2023/04/16 03:13:49;;;;;;;2.80;2.50;;;8.50;99.90;;;;;;5059842;28;20174;-43
2023/04/16 03:16:15;;;;;;;2.97;2.60;;;8.50;99.90;;;;;;5059301;28;20208;-43
2023/04/16 03:18:40;;;;;;;2.47;2.27;;;8.50;99.90;;;;;;5060607;28;20213;-43
2023/04/16 03:21:06;;;;;;;3.17;2.20;;;8.50;99.90;;;;;;5059835;28;20169;-42
2023/04/16 03:23:32;;;;;;;2.07;1.87;;;8.50;99.90;;;;;;5059857;28;20174;-40
2023/04/16 03:25:58;;;;;;;2.03;1.90;;;8.50;99.90;;;;;;5050483;28;20177;-41
2023/04/16 03:28:24;;;;;;;2.20;2.00;;;8.50;99.90;;;;;;5059328;28;20169;-43
2023/04/16 03:30:51;;;;;;;1.90;1.70;;;8.50;99.90;;;;;;5042045;28;20174;-43
2023/04/16 03:33:18;;;;;;;1.97;1.80;;;8.50;99.90;;;;;;5050070;28;20174;-42
2023/04/16 03:35:44;;;;;;;1.77;1.67;;;8.40;99.90;;;;;;5060228;28;20192;-40
2023/04/16 03:38:11;;;;;;;1.93;1.83;;;8.40;99.90;;;;;;5044705;28;20189;-40
2023/04/16 03:40:38;;;;;;;1.60;1.50;;;8.50;99.90;;;;;;5042035;28;20193;-42
2023/04/16 03:43:04;;;;;;;1.90;1.80;;;8.40;99.90;;;;;;5058859;28;20680;-42
2023/04/16 03:45:29;;;;;;;1.87;1.77;;;8.40;99.90;;;;;;5049474;28;20274;-43
2023/04/16 03:47:55;;;;;;;2.00;1.80;;;8.40;99.90;;;;;;5058515;28;20177;-42
2023/04/16 03:50:24;;;;;;;2.47;1.70;;;8.40;99.90;;;;;;5049970;28;20195;-42
2023/04/16 03:52:50;;;;;;;2.10;1.80;;;8.30;99.90;;;;;;5041831;28;20256;-43
2023/04/16 03:55:17;;;;;;;2.63;2.10;;;8.30;99.90;;;;;;5042035;28;20177;-40
2023/04/16 03:57:44;;;;;;;2.63;2.30;;;8.30;99.90;;;;;;5058600;28;20206;-43
2023/04/16 04:00:13;;;;;;;3.60;2.90;;;8.20;99.90;;;;;;5043029;28;20190;-43
2023/04/16 04:02:53;;;;;;;4.60;3.87;;;8.20;99.90;;;;;;5057804;28;20265;-42
2023/04/16 04:05:19;;;;;;;4.33;3.93;;;8.10;99.90;;;;;;5050517;28;20264;-42
2023/04/16 04:07:46;;;;;;;5.77;4.40;;;8.00;99.90;;;;;;5049580;28;20213;-40
2023/04/16 04:10:13;;;;;;;5.70;4.63;;;8.10;99.90;;;;;;5059909;28;20201;-42
2023/04/16 04:12:40;;;;;;;6.07;4.90;;;8.00;99.90;;;;;;5059731;28;20194;-42
2023/04/16 04:15:07;;;;;;;6.80;5.07;;;8.10;99.90;;;;;;5060072;28;20185;-43
2023/04/16 04:17:33;;;;;;;6.20;5.23;;;8.10;99.90;;;;;;5058028;28;20194;-43
2023/04/16 04:19:59;;;;;;;6.53;5.50;;;8.00;99.90;;;;;;5060529;28;20205;-42
2023/04/16 04:22:25;;;;;;;6.40;5.47;;;8.00;99.90;;;;;;5050000;28;20182;-43
2023/04/16 04:24:51;;;;;;;12.73;8.27;;;8.00;99.90;;;;;;5061126;28;20184;-42
2023/04/16 04:27:17;;;;;;;46.37;26.33;;;8.10;99.90;;;;;;5068969;28;20674;-41
2023/04/16 04:29:43;;;;;;;66.90;43.97;;;8.10;99.90;;;;;;5052987;28;20193;-41
2023/04/16 04:32:10;;;;;;;37.27;21.40;;;8.00;99.90;;;;;;5063202;28;20173;-40
2023/04/16 04:34:35;;;;;;;31.73;19.53;;;8.10;99.90;;;;;;5066217;28;20234;-43
2023/04/16 04:37:02;;;;;;;24.07;13.40;;;8.10;99.90;;;;;;5048510;28;20200;-43
2023/04/16 04:39:28;;;;;;;16.43;10.73;;;8.10;99.90;;;;;;5046167;28;20288;-42
2023/04/16 04:41:54;;;;;;;16.23;11.63;;;8.10;99.90;;;;;;5054918;28;20199;-42
2023/04/16 04:44:20;;;;;;;8.37;6.50;;;8.10;99.90;;;;;;5063633;28;20165;-43
2023/04/16 04:46:45;;;;;;;7.03;5.80;;;8.20;99.90;;;;;;5045853;28;20178;-41
2023/04/16 04:49:11;;;;;;;6.80;5.63;;;8.20;99.90;;;;;;5065028;28;20224;-42
2023/04/16 04:51:37;;;;;;;7.43;5.67;;;8.20;99.90;;;;;;5064484;28;20183;-42
2023/04/16 04:54:03;;;;;;;7.40;5.40;;;8.20;99.90;;;;;;5064304;28;20188;-42
2023/04/16 04:56:29;;;;;;;6.83;5.27;;;8.20;99.90;;;;;;5060704;28;20197;-42
2023/04/16 04:58:55;;;;;;;6.83;5.70;;;8.30;99.90;;;;;;5064347;28;20215;-41
2023/04/16 05:01:21;;;;;;;6.40;5.37;;;8.30;99.90;;;;;;5061783;28;20178;-42
2023/04/16 05:03:47;;;;;;;5.57;4.77;;;8.30;99.90;;;;;;5052915;28;20188;-42
2023/04/16 05:06:13;;;;;;;6.20;5.10;;;8.30;99.90;;;;;;5063266;28;20212;-41
2023/04/16 05:08:38;;;;;;;6.37;5.43;;;8.30;99.90;;;;;;5068443;28;20240;-42
2023/04/16 05:11:05;;;;;;;6.07;5.37;;;8.30;99.90;;;;;;5071447;28;20180;-42
2023/04/16 05:13:31;;;;;;;5.87;5.23;;;8.30;99.90;;;;;;5073839;28;20189;-42
2023/04/16 05:15:57;;;;;;;5.00;4.50;;;8.20;99.90;;;;;;5071328;28;20216;-42
2023/04/16 05:18:23;;;;;;;5.70;5.07;;;8.20;99.90;;;;;;5063901;28;20645;-42
2023/04/16 05:20:48;;;;;;;6.40;5.60;;;8.20;99.90;;;;;;5062742;28;20174;-42
2023/04/16 05:23:14;;;;;;;5.67;4.93;;;8.20;99.90;;;;;;5092232;22;20233;-37
2023/04/16 05:25:40;;;;;;;5.33;4.40;;;8.20;99.90;;;;;;5040507;28;20171;-36
2023/04/16 05:28:06;;;;;;;6.17;5.10;;;8.20;99.90;;;;;;5041863;28;20186;-36
2023/04/16 05:30:32;;;;;;;6.00;5.03;;;8.10;99.90;;;;;;5040653;28;20178;-36
2023/04/16 05:32:57;;;;;;;7.87;4.90;;;8.10;99.90;;;;;;5043955;28;20264;-36
2023/04/16 05:38:04;;;;;;;4.67;4.23;;;8.10;99.90;;;;;;5071799;22;20300;-30
2023/04/16 05:40:31;;;;;;;5.13;4.63;;;8.20;99.90;;;;;;5031079;28;20261;-31
2023/04/16 05:42:57;;;;;;;10.13;5.47;;;8.20;99.90;;;;;;5043420;28;20182;-31
2023/04/16 05:45:23;;;;;;;8.40;5.53;;;8.20;99.90;;;;;;5030729;28;20198;-30
2023/04/16 05:47:48;;;;;;;5.80;4.60;;;8.20;99.90;;;;;;5044945;28;20189;-31
2023/04/16 05:50:14;;;;;;;4.60;4.20;;;8.30;99.90;;;;;;5032276;28;20258;-30
2023/04/16 05:52:40;;;;;;;4.60;4.00;;;8.20;99.90;;;;;;5044393;28;20185;-31
2023/04/16 05:55:06;;;;;;;5.47;4.60;;;8.20;99.90;;;;;;5043484;28;20543;-31
2023/04/16 05:57:32;;;;;;;4.87;4.37;;;8.20;99.90;;;;;;5042579;28;20267;-31
2023/04/16 05:59:58;;;;;;;6.27;5.43;;;8.10;99.90;;;;;;5044016;28;20202;-31
2023/04/16 06:02:24;;;;;;;7.73;5.80;;;8.10;99.90;;;;;;5030936;28;20220;-30
2023/04/16 06:04:49;;;;;;;8.70;6.50;;;8.10;99.90;;;;;;5031811;28;20190;-31
2023/04/16 06:07:15;;;;;;;9.03;6.70;;;8.10;99.90;;;;;;5044973;28;20205;-31
2023/04/16 06:09:41;;;;;;;9.13;7.07;;;8.10;99.90;;;;;;5014916;28;20191;-30
2023/04/16 06:12:07;;;;;;;12.33;6.67;;;8.10;99.90;;;;;;5031201;28;20253;-31
2023/04/16 06:14:33;;;;;;;8.23;6.80;;;8.00;99.90;;;;;;5025542;28;20206;-31
2023/04/16 06:16:59;;;;;;;8.97;7.37;;;8.10;99.90;;;;;;5034418;28;20228;-30
2023/04/16 06:19:24;;;;;;;9.50;7.60;;;8.10;99.90;;;;;;5037321;28;20181;-31
2023/04/16 06:21:50;;;;;;;10.50;7.43;;;8.10;99.90;;;;;;5044895;28;20185;-30
2023/04/16 06:24:17;;;;;;;10.23;7.63;;;8.00;99.90;;;;;;5034149;28;20178;-31
2023/04/16 06:26:43;;;;;;;10.60;8.30;;;8.00;99.90;;;;;;5048685;28;20705;-30
2023/04/16 06:29:10;;;;;;;11.90;9.20;;;7.90;99.90;;;;;;5051711;28;20231;-31
2023/04/16 06:31:36;;;;;;;13.97;8.63;;;7.90;99.90;;;;;;5039484;28;20177;-31
2023/04/16 06:34:02;;;;;;;14.13;8.87;;;7.90;99.90;;;;;;5047793;28;20543;-31
2023/04/16 06:36:28;;;;;;;12.17;8.53;;;7.90;99.90;;;;;;5040519;28;20223;-30
2023/04/16 06:38:53;;;;;;;13.27;9.27;;;7.90;99.90;;;;;;5015257;28;20178;-31
2023/04/16 06:41:21;;;;;;;13.97;10.13;;;7.90;99.90;;;;;;5041884;28;20173;-30
2023/04/16 06:43:47;;;;;;;14.90;9.27;;;7.90;99.90;;;;;;5041088;28;20255;-31
2023/04/16 06:46:13;;;;;;;13.20;9.53;;;7.90;99.90;;;;;;5041366;28;20209;-31
2023/04/16 06:48:38;;;;;;;17.20;10.60;;;7.80;99.90;;;;;;5014958;28;20205;-31
2023/04/16 06:51:04;;;;;;;16.27;10.77;;;7.80;99.90;;;;;;5039940;28;20174;-30
2023/04/16 06:53:30;;;;;;;16.97;10.90;;;7.80;99.90;;;;;;5041491;28;20196;-30
2023/04/16 06:55:56;;;;;;;15.43;11.10;;;7.80;99.90;;;;;;5030968;28;20197;-30
2023/04/16 06:58:22;;;;;;;16.67;11.80;;;7.70;99.90;;;;;;5031331;28;20540;-31
2023/04/16 07:00:48;;;;;;;16.40;12.00;;;7.70;99.90;;;;;;5030950;28;20181;-31
2023/04/16 07:03:13;;;;;;;17.23;11.80;;;7.70;99.90;;;;;;5031307;28;20229;-31
2023/04/16 07:05:39;;;;;;;17.67;12.23;;;7.70;99.90;;;;;;5028418;28;20211;-31
2023/04/16 07:08:05;;;;;;;18.87;12.73;;;7.80;99.90;;;;;;5040790;28;20181;-30
2023/04/16 07:10:31;;;;;;;19.70;12.73;;;7.70;99.90;;;;;;5005997;28;20276;-30
2023/04/16 07:12:57;;;;;;;17.97;12.80;;;7.70;99.90;;;;;;5040571;28;20178;-31
2023/04/16 07:15:22;;;;;;;23.20;13.43;;;7.80;99.90;;;;;;5029339;28;20189;-31
2023/04/16 07:17:48;;;;;;;22.13;14.20;;;7.80;99.90;;;;;;5040422;28;20243;-30
2023/04/16 07:20:14;;;;;;;20.67;13.77;;;7.70;99.90;;;;;;5028603;28;20194;-30
2023/04/16 07:22:40;;;;;;;20.87;14.13;;;7.60;99.90;;;;;;5030997;28;20316;-31
2023/04/16 07:25:06;;;;;;;22.63;14.90;;;7.60;99.90;;;;;;5030033;28;20275;-30
2023/04/16 07:27:32;;;;;;;24.23;15.83;;;7.60;99.90;;;;;;5040800;28;20181;-30
2023/04/16 07:29:58;;;;;;;22.30;14.90;;;7.60;99.90;;;;;;5013104;28;20178;-30
2023/04/16 07:32:24;;;;;;;25.53;16.63;;;7.60;99.90;;;;;;5031055;28;20256;-30
2023/04/16 07:34:50;;;;;;;22.17;14.77;;;7.60;99.90;;;;;;5040478;28;20177;-30
2023/04/16 07:37:16;;;;;;;24.70;15.57;;;7.60;99.90;;;;;;5014250;28;20220;-31
2023/04/16 07:39:42;;;;;;;24.50;15.73;;;7.60;99.90;;;;;;5028978;28;20266;-30
2023/04/16 07:42:07;;;;;;;22.93;15.43;;;7.70;99.90;;;;;;5030312;28;20182;-30
2023/04/16 07:44:33;;;;;;;24.80;15.73;;;7.70;99.90;;;;;;5040810;28;20198;-29
2023/04/16 07:46:59;;;;;;;22.00;16.00;;;7.70;99.90;;;;;;5030885;28;20196;-30
2023/04/16 07:49:25;;;;;;;27.20;17.47;;;7.80;99.90;;;;;;5030190;28;20318;-29
2023/04/16 07:51:51;;;;;;;25.17;17.13;;;7.80;99.90;;;;;;5028316;28;20182;-29
2023/04/16 07:54:16;;;;;;;23.63;15.97;;;7.80;99.90;;;;;;5031111;28;20339;-30
2023/04/16 07:56:42;;;;;;;26.53;16.37;;;7.80;99.90;;;;;;5030373;28;20212;-29
2023/04/16 07:59:08;;;;;;;23.97;15.73;;;7.80;99.90;;;;;;5028964;28;20177;-29
2023/04/16 08:01:34;;;;;;;23.00;15.47;;;7.90;99.90;;;;;;5040654;28;20260;-29
2023/04/16 08:03:59;;;;;;;21.67;15.50;;;7.90;99.90;;;;;;5040841;28;20193;-31
2023/04/16 08:06:25;;;;;;;23.40;15.60;;;7.90;99.90;;;;;;5035326;28;20216;-31
2023/04/16 08:08:51;;;;;;;22.43;15.03;;;7.90;99.90;;;;;;5032706;28;20188;-31
2023/04/16 08:11:17;;;;;;;22.37;14.73;;;7.90;99.90;;;;;;5033965;28;20192;-31
2023/04/16 08:13:43;;;;;;;23.50;15.70;;;7.90;99.90;;;;;;5055273;28;20247;-31
2023/04/16 08:16:08;;;;;;;22.87;14.73;;;7.90;99.90;;;;;;5033696;28;20198;-31
2023/04/16 08:18:34;;;;;;;23.77;15.60;;;7.90;99.90;;;;;;5017848;28;20227;-31
2023/04/16 08:21:00;;;;;;;20.63;14.87;;;7.90;99.90;;;;;;5043878;28;20174;-29
2023/04/16 08:23:26;;;;;;;21.63;14.43;;;7.90;99.90;;;;;;5043664;28;20223;-29
2023/04/16 08:25:52;;;;;;;23.23;14.47;;;8.00;99.90;;;;;;5044146;28;20201;-29
2023/04/16 08:28:17;;;;;;;20.93;14.70;;;8.00;99.90;;;;;;5017355;28;20189;-30
2023/04/16 08:30:44;;;;;;;19.90;13.83;;;8.10;99.90;;;;;;5043381;28;20273;-29
2023/04/16 08:33:10;;;;;;;19.00;14.57;;;8.00;99.90;;;;;;5033729;28;20217;-30
2023/04/16 08:35:36;;;;;;;19.13;14.13;;;8.00;99.90;;;;;;5032162;28;20295;-29
2023/04/16 08:38:03;;;;;;;19.53;13.53;;;8.00;99.90;;;;;;5043112;28;20213;-30
2023/04/16 08:40:30;;;;;;;18.93;14.03;;;8.00;99.90;;;;;;5033951;28;20263;-29
2023/04/16 08:42:59;;;;;;;21.77;14.20;;;8.00;99.90;;;;;;5043927;28;20182;-30
2023/04/16 08:45:26;;;;;;;21.23;14.17;;;8.00;99.90;;;;;;5033352;28;20202;-29
2023/04/16 08:47:52;;;;;;;20.33;14.37;;;8.00;99.90;;;;;;5043610;28;20177;-29
2023/04/16 08:50:25;;;;;;;20.47;14.40;;;8.00;99.90;;;;;;5043301;28;20186;-30
2023/04/16 08:52:57;;;;;;;18.67;13.50;;;8.00;99.90;;;;;;5043889;28;20229;-30
2023/04/16 08:55:28;;;;;;;18.87;13.33;;;8.00;99.90;;;;;;5021560;28;20197;-30
2023/04/16 08:57:57;;;;;;;18.83;13.57;;;8.00;99.90;;;;;;5009904;28;20256;-29
2023/04/16 09:00:23;;;;;;;19.83;12.50;;;8.00;99.90;;;;;;5032827;28;20172;-30
2023/04/16 09:02:50;;;;;;;18.60;13.20;;;8.00;99.90;;;;;;5033152;28;20171;-29
2023/04/16 09:05:16;;;;;;;20.87;13.70;;;8.00;99.90;;;;;;5042535;28;20201;-30
2023/04/16 09:07:47;;;;;;;17.70;12.77;;;8.00;99.90;;;;;;5032499;28;20185;-30
2023/04/16 09:10:16;;;;;;;18.63;12.53;;;8.10;99.90;;;;;;5042153;28;20213;-30
2023/04/16 09:12:43;;;;;;;19.83;13.50;;;8.10;99.90;;;;;;5032007;28;20189;-29
2023/04/16 09:15:10;;;;;;;18.27;12.63;;;8.10;99.90;;;;;;5032526;28;20270;-29
2023/04/16 09:17:36;;;;;;;21.07;13.77;;;8.20;99.90;;;;;;5017581;28;20243;-33
2023/04/16 09:20:04;;;;;;;18.77;12.70;;;8.20;99.90;;;;;;5034257;28;20208;-31
2023/04/16 09:22:30;;;;;;;16.33;12.47;;;8.20;99.90;;;;;;5032446;28;20178;-31
2023/04/16 09:24:56;;;;;;;17.40;12.33;;;8.20;99.90;;;;;;5042366;28;20187;-31
2023/04/16 09:27:24;;;;;;;16.90;12.43;;;8.20;99.90;;;;;;5033195;28;20177;-30
2023/04/16 09:29:50;;;;;;;16.73;12.00;;;8.20;99.90;;;;;;5016820;28;20273;-31
2023/04/16 09:32:15;;;;;;;17.03;12.77;;;8.30;99.90;;;;;;5032794;28;20280;-30
2023/04/16 09:34:59;;;;;;;18.27;12.23;;;8.30;99.90;;;;;;5033397;28;20193;-31
2023/04/16 09:37:29;;;;;;;16.97;11.63;;;8.40;99.90;;;;;;5042100;28;20201;-31
2023/04/16 09:40:00;;;;;;;16.83;11.67;;;8.40;99.90;;;;;;5032334;28;21039;-31
2023/04/16 09:42:28;;;;;;;15.37;12.00;;;8.50;99.90;;;;;;5043794;28;20221;-31
2023/04/16 09:44:54;;;;;;;18.27;12.67;;;8.50;99.90;;;;;;5015924;28;20218;-31
2023/04/16 09:47:21;;;;;;;16.27;11.40;;;8.60;99.90;;;;;;5032947;28;20182;-30
2023/04/16 09:49:47;;;;;;;18.83;12.57;;;8.60;99.90;;;;;;5043468;28;20183;-31
2023/04/16 09:52:15;;;;;;;17.13;12.07;;;8.70;99.90;;;;;;5016349;28;20181;-31
2023/04/16 09:54:47;;;;;;;17.53;12.43;;;8.70;99.90;;;;;;5042016;28;20174;-31
2023/04/16 09:57:17;;;;;;;19.43;12.37;;;8.70;99.90;;;;;;5031317;28;20206;-30
2023/04/16 09:59:43;;;;;;;16.93;12.37;;;8.80;99.90;;;;;;5041045;28;20185;-30
2023/04/16 10:02:08;;;;;;;16.20;12.00;;;8.80;99.90;;;;;;5042104;28;20175;-31
2023/04/16 10:04:51;;;;;;;16.90;11.93;;;9.00;99.90;;;;;;5041590;28;20191;-31
2023/04/16 10:07:18;;;;;;;15.90;11.80;;;9.00;99.90;;;;;;5042680;28;20570;-31
2023/04/16 10:09:45;;;;;;;17.30;12.10;;;9.00;99.90;;;;;;5031839;28;20187;-31
2023/04/16 10:12:14;;;;;;;16.83;11.10;;;8.90;99.90;;;;;;5041330;28;20210;-30
2023/04/16 10:14:41;;;;;;;17.47;11.97;;;8.90;99.90;;;;;;5032160;28;20181;-30
2023/04/16 10:17:08;;;;;;;17.40;12.33;;;8.80;99.90;;;;;;5032151;28;20245;-31
2023/04/16 10:19:37;;;;;;;17.53;12.10;;;8.80;99.90;;;;;;5031479;28;20178;-30
2023/04/16 10:22:03;;;;;;;17.07;12.70;;;8.70;99.90;;;;;;5031753;28;20261;-31
2023/04/16 10:24:30;;;;;;;19.23;12.60;;;8.70;99.90;;;;;;5041165;28;20179;-30
2023/04/16 10:26:57;;;;;;;19.10;13.13;;;8.60;99.90;;;;;;5040329;28;20202;-31
2023/04/16 10:29:23;;;;;;;18.37;13.07;;;8.60;99.90;;;;;;5031296;28;20264;-30
2023/04/16 10:31:50;;;;;;;17.77;12.67;;;8.70;99.90;;;;;;5040817;28;20262;-31
2023/04/16 10:34:17;;;;;;;19.30;13.67;;;8.70;99.90;;;;;;5040512;28;20220;-30
2023/04/16 10:36:48;;;;;;;18.70;12.87;;;8.70;99.90;;;;;;5041501;28;20219;-30
2023/04/16 10:39:17;;;;;;;18.93;13.07;;;8.70;99.90;;;;;;5028939;28;20257;-31
2023/04/16 10:41:44;;;;;;;16.47;11.90;;;8.80;99.90;;;;;;5040601;28;20258;-31
2023/04/16 10:44:10;;;;;;;18.17;12.57;;;8.80;99.90;;;;;;5041799;28;20182;-31
2023/04/16 10:46:44;;;;;;;17.23;12.80;;;8.90;99.90;;;;;;5031702;28;20202;-30
2023/04/16 10:49:23;;;;;;;18.23;12.43;;;9.00;99.90;;;;;;5031689;28;20272;-29
2023/04/16 10:52:02;;;;;;;18.77;13.07;;;9.00;99.90;;;;;;5031365;28;20211;-30
2023/04/16 10:54:29;;;;;;;18.87;13.10;;;9.00;99.90;;;;;;5042256;28;20170;-29
2023/04/16 10:56:57;;;;;;;18.60;14.20;;;9.00;99.90;;;;;;5040451;28;20228;-29
2023/04/16 10:59:24;;;;;;;18.73;13.03;;;9.10;99.90;;;;;;5040277;28;20190;-29
2023/04/16 11:01:53;;;;;;;17.73;12.30;;;9.10;99.90;;;;;;5014424;28;20178;-30
2023/04/16 11:04:19;;;;;;;20.97;13.63;;;9.10;99.90;;;;;;5041452;28;20261;-30
2023/04/16 11:07:06;;;;;;;19.63;13.57;;;9.00;99.90;;;;;;5041526;28;20292;-30
2023/04/16 11:09:49;;;;;;;19.17;14.03;;;9.10;99.90;;;;;;5039691;28;20183;-31
2023/04/16 11:12:17;;;;;;;19.73;13.40;;;9.10;99.90;;;;;;5031411;28;20182;-30
2023/04/16 11:14:48;;;;;;;17.60;12.53;;;9.00;99.90;;;;;;5014364;28;20209;-30
2023/04/16 11:17:14;;;;;;;17.63;12.33;;;9.00;99.90;;;;;;5029778;28;20245;-29
2023/04/16 11:19:42;;;;;;;20.87;14.33;;;8.90;99.90;;;;;;5028075;28;20186;-30
2023/04/16 11:22:09;;;;;;;21.40;14.43;;;8.90;99.90;;;;;;5030052;28;20213;-30
2023/04/16 11:24:35;;;;;;;23.57;15.23;;;8.90;99.90;;;;;;5031151;28;20290;-29
2023/04/16 11:27:01;;;;;;;19.60;13.80;;;8.90;99.90;;;;;;5040232;28;20258;-29
2023/04/16 11:29:27;;;;;;;18.20;12.83;;;8.80;99.90;;;;;;5014449;28;20228;-29
2023/04/16 11:31:54;;;;;;;19.67;14.10;;;8.80;99.90;;;;;;5040789;28;20185;-29
2023/04/16 11:34:20;;;;;;;18.87;13.20;;;8.70;99.90;;;;;;5040289;28;20187;-29
2023/04/16 11:36:48;;;;;;;18.17;12.40;;;8.80;99.90;;;;;;5029331;28;20240;-30
2023/04/16 11:39:13;;;;;;;20.77;13.97;;;8.80;99.90;;;;;;5040663;28;20241;-29
2023/04/16 11:41:47;;;;;;;17.53;12.67;;;8.90;99.90;;;;;;5040828;28;20166;-29
2023/04/16 11:44:16;;;;;;;18.27;12.47;;;8.90;99.90;;;;;;5029300;28;20178;-30
2023/04/16 11:46:42;;;;;;;17.47;12.60;;;8.90;99.90;;;;;;5039527;28;20210;-29
2023/04/16 11:49:08;;;;;;;17.90;12.03;;;9.00;99.90;;;;;;5040043;28;20170;-30
2023/04/16 11:51:42;;;;;;;18.10;12.03;;;9.00;99.90;;;;;;5030581;28;20654;-28
2023/04/16 11:54:09;;;;;;;16.37;11.63;;;9.00;99.90;;;;;;5030065;28;20185;-30
2023/04/16 11:56:36;;;;;;;16.83;11.20;;;9.00;99.90;;;;;;5030779;28;20286;-29
2023/04/16 11:59:12;;;;;;;16.50;11.90;;;9.00;99.90;;;;;;5039580;28;20720;-30
2023/04/16 12:01:40;;;;;;;15.23;11.33;;;9.10;99.90;;;;;;5039830;28;20170;-29
2023/04/16 12:04:07;;;;;;;15.47;11.27;;;9.00;99.90;;;;;;5040124;28;20210;-30
2023/04/16 12:06:33;;;;;;;15.20;11.43;;;9.00;99.90;;;;;;5028976;28;20259;-29
2023/04/16 12:09:19;;;;;;;15.93;11.17;;;9.10;99.90;;;;;;5029785;28;20179;-29
2023/04/16 12:11:45;;;;;;;14.80;11.13;;;9.10;99.90;;;;;;5039394;28;20247;-29
2023/04/16 12:14:12;;;;;;;14.17;10.50;;;9.20;99.90;;;;;;5028619;28;20175;-30
2023/04/16 12:16:38;;;;;;;17.63;12.00;;;9.20;99.90;;;;;;5039844;28;20247;-29
2023/04/16 12:19:04;;;;;;;21.10;12.73;;;9.30;99.90;;;;;;5030289;28;20174;-30
2023/04/16 12:21:43;;;;;;;16.73;11.93;;;9.30;99.90;;;;;;5014182;28;20202;-29
2023/04/16 12:24:14;;;;;;;17.13;12.23;;;9.30;99.90;;;;;;5039924;28;20216;-31
2023/04/16 12:26:45;;;;;;;13.77;10.30;;;9.30;99.90;;;;;;5029487;28;20222;-29
2023/04/16 12:29:17;;;;;;;23.17;12.63;;;9.40;99.90;;;;;;5028507;28;20222;-31
2023/04/16 12:31:43;;;;;;;13.93;9.37;;;9.40;99.90;;;;;;5039564;28;20228;-31
2023/04/16 12:34:09;;;;;;;13.57;9.73;;;9.40;99.90;;;;;;5030435;28;20197;-31
2023/04/16 12:36:35;;;;;;;18.23;10.90;;;9.50;99.90;;;;;;5028506;28;20222;-30
2023/04/16 12:39:02;;;;;;;23.93;12.97;;;9.50;99.90;;;;;;5029112;28;20175;-31
2023/04/16 12:41:27;;;;;;;18.73;11.37;;;9.60;99.90;;;;;;5012004;28;20186;-31
2023/04/16 12:44:03;;;;;;;13.23;9.80;;;9.70;99.90;;;;;;5040107;28;20170;-31
2023/04/16 12:46:29;;;;;;;16.80;10.77;;;9.70;99.90;;;;;;5029877;28;20197;-31